createdAt,value
2024-01-19T00:01:28.399Z,43.77
2024-01-19T00:03:58.002Z,40.27
2024-01-19T00:06:26.081Z,43.13
2024-01-19T00:08:54.208Z,34.87
2024-01-19T00:11:23.645Z,39.87
2024-01-19T00:13:51.668Z,41.83
2024-01-19T00:16:20.320Z,36.13
2024-01-19T00:18:48.916Z,34.83
2024-01-19T00:21:17.408Z,35.93
2024-01-19T00:23:45.676Z,36.70
2024-01-19T00:26:13.693Z,33.97
2024-01-19T00:28:43.112Z,37.27
2024-01-19T00:31:11.086Z,34.63
2024-01-19T00:33:39.019Z,31.00
2024-01-19T00:36:07.794Z,27.60
2024-01-19T00:38:35.847Z,26.13
2024-01-19T00:41:03.840Z,22.77
2024-01-19T00:43:31.797Z,31.97
2024-01-19T00:46:01.111Z,19.60
2024-01-19T00:48:29.200Z,22.73
2024-01-19T00:50:57.245Z,21.83
2024-01-19T00:53:25.212Z,24.63
2024-01-19T00:55:53.202Z,30.17
2024-01-19T00:58:21.187Z,24.57
2024-01-19T01:00:49.680Z,24.03
2024-01-19T01:03:25.489Z,31.10
2024-01-19T01:05:57.833Z,21.40
2024-01-19T01:08:27.070Z,22.50
2024-01-19T01:10:55.608Z,24.30
2024-01-19T01:13:23.655Z,23.53
2024-01-19T01:15:53.590Z,30.00
2024-01-19T01:18:22.527Z,27.10
2024-01-19T01:20:53.234Z,26.10
2024-01-19T01:23:21.869Z,27.67
2024-01-19T01:25:49.873Z,26.20
2024-01-19T01:28:17.864Z,37.83
2024-01-19T01:30:45.907Z,30.17
2024-01-19T01:33:14.115Z,32.67
2024-01-19T01:35:42.414Z,31.80
2024-01-19T01:38:11.795Z,35.40
2024-01-19T01:40:39.760Z,34.23
2024-01-19T01:43:08.429Z,38.53
2024-01-19T01:45:36.405Z,31.83
2024-01-19T01:48:05.305Z,35.23
2024-01-19T01:50:33.845Z,34.17
2024-01-19T01:53:02.850Z,30.00
2024-01-19T01:55:32.433Z,31.80
2024-01-19T01:58:00.635Z,32.10
2024-01-19T02:00:31.741Z,28.17
2024-01-19T02:03:02.469Z,30.80
2024-01-19T02:05:30.795Z,28.67
2024-01-19T02:07:58.993Z,33.97
2024-01-19T02:10:27.412Z,31.20
2024-01-19T02:12:57.740Z,29.40
2024-01-19T02:15:27.662Z,30.37
2024-01-19T02:17:56.037Z,33.87
2024-01-19T02:20:24.358Z,32.07
2024-01-19T02:22:55.024Z,29.40
2024-01-19T02:25:24.936Z,33.63
2024-01-19T02:27:53.473Z,30.60
2024-01-19T02:30:21.455Z,27.47
2024-01-19T02:32:49.607Z,31.93
2024-01-19T02:35:17.766Z,31.93
2024-01-19T02:37:45.762Z,37.73
2024-01-19T02:40:14.392Z,33.17
2024-01-19T02:42:43.687Z,37.77
2024-01-19T02:45:11.911Z,40.03
2024-01-19T02:47:39.898Z,35.30
2024-01-19T02:50:08.761Z,36.30
2024-01-19T02:52:36.713Z,34.77
2024-01-19T02:55:05.913Z,38.07
2024-01-19T02:57:33.891Z,39.23
2024-01-19T03:00:04.530Z,37.87
2024-01-19T03:02:32.577Z,39.80
2024-01-19T03:05:00.662Z,32.17
2024-01-19T03:07:28.660Z,40.43
2024-01-19T03:09:56.644Z,40.50
2024-01-19T03:12:24.766Z,37.87
2024-01-19T03:14:52.764Z,38.60
2024-01-19T03:17:22.299Z,38.60
2024-01-19T03:19:50.310Z,37.97
2024-01-19T03:22:18.329Z,34.70
2024-01-19T03:24:46.321Z,44.07
2024-01-19T03:27:15.679Z,40.53
2024-01-19T03:29:44.565Z,42.17
2024-01-19T03:32:12.542Z,44.23
2024-01-19T03:34:42.216Z,44.07
2024-01-19T03:37:10.190Z,43.60
2024-01-19T03:39:38.136Z,49.60
2024-01-19T03:42:06.177Z,43.80
2024-01-19T03:44:34.570Z,45.67
2024-01-19T03:47:02.748Z,54.13
2024-01-19T03:49:30.765Z,41.00
2024-01-19T03:52:01.281Z,41.70
2024-01-19T03:54:29.361Z,46.90
2024-01-19T03:56:59.635Z,48.63
2024-01-19T03:59:28.051Z,43.30
2024-01-19T04:01:56.435Z,44.57
2024-01-19T04:04:25.094Z,45.80
2024-01-19T04:06:53.880Z,45.50
2024-01-19T04:09:23.288Z,50.27
2024-01-19T04:11:51.301Z,43.73
2024-01-19T04:14:19.296Z,44.90
2024-01-19T04:16:47.279Z,43.13
2024-01-19T04:19:16.748Z,45.50
2024-01-19T04:21:44.708Z,42.70
2024-01-19T04:24:12.636Z,41.20
2024-01-19T04:26:41.997Z,48.73
2024-01-19T04:29:11.123Z,51.63
2024-01-19T04:31:39.354Z,50.13
2024-01-19T04:34:07.965Z,45.00
2024-01-19T04:36:35.989Z,44.67
2024-01-19T04:39:04.527Z,46.57
2024-01-19T04:41:34.171Z,43.07
2024-01-19T04:44:04.154Z,43.30
2024-01-19T04:46:32.403Z,40.77
2024-01-19T04:49:00.686Z,41.00
2024-01-19T04:51:28.834Z,43.40
2024-01-19T04:53:59.867Z,45.00
2024-01-19T04:56:28.377Z,50.33
2024-01-19T04:58:56.488Z,44.67
2024-01-19T05:01:25.929Z,47.23
2024-01-19T05:03:53.898Z,47.77
2024-01-19T05:06:22.121Z,45.07
2024-01-19T05:08:50.207Z,42.00
2024-01-19T05:11:18.257Z,46.50
2024-01-19T05:13:46.127Z,46.20
2024-01-19T05:16:15.092Z,51.43
2024-01-19T05:18:44.973Z,47.87
2024-01-19T05:21:12.893Z,47.90
2024-01-19T05:23:41.051Z,46.63
2024-01-19T05:26:10.104Z,51.23
2024-01-19T05:28:38.668Z,59.50
2024-01-19T05:31:06.668Z,47.47
2024-01-19T05:33:38.574Z,53.53
2024-01-19T05:36:09.635Z,45.90
2024-01-19T05:38:37.690Z,56.70
2024-01-19T05:41:06.099Z,54.07
2024-01-19T05:43:34.948Z,56.67
2024-01-19T05:46:02.959Z,56.10
2024-01-19T05:48:31.051Z,57.27
2024-01-19T05:50:59.182Z,57.10
2024-01-19T05:53:28.546Z,53.40
2024-01-19T05:55:56.660Z,56.73
2024-01-19T05:58:24.674Z,51.67
2024-01-19T06:00:52.797Z,55.30
2024-01-19T06:03:21.088Z,62.93
2024-01-19T06:05:49.324Z,57.07
2024-01-19T06:08:17.545Z,66.17
2024-01-19T06:10:46.954Z,58.40
2024-01-19T06:13:15.156Z,54.17
2024-01-19T06:15:43.218Z,62.37
2024-01-19T06:18:11.797Z,65.37
2024-01-19T06:20:42.943Z,59.87
2024-01-19T06:23:11.867Z,62.30
2024-01-19T06:25:41.068Z,67.13
2024-01-19T06:28:11.295Z,64.53
2024-01-19T06:30:39.634Z,60.17
2024-01-19T06:33:07.855Z,61.87
2024-01-19T06:35:36.814Z,93.50
2024-01-19T06:38:06.252Z,59.97
2024-01-19T06:40:35.253Z,110.60
2024-01-19T06:43:03.889Z,173.87
2024-01-19T06:45:33.271Z,94.67
2024-01-19T06:48:01.490Z,103.80
2024-01-19T06:50:29.552Z,106.23
2024-01-19T06:53:00.729Z,94.93
2024-01-19T06:55:29.291Z,81.33
2024-01-19T06:57:57.494Z,75.67
2024-01-19T07:00:25.775Z,74.93
2024-01-19T07:02:55.858Z,74.10
2024-01-19T07:05:24.552Z,69.00
2024-01-19T07:07:53.657Z,69.70
2024-01-19T07:10:22.542Z,62.40
2024-01-19T07:12:50.523Z,57.50
2024-01-19T07:15:18.481Z,59.73
2024-01-19T07:17:46.520Z,56.20
2024-01-19T07:20:16.108Z,56.57
2024-01-19T07:22:44.093Z,57.10
2024-01-19T07:25:12.103Z,56.37
2024-01-19T07:27:40.110Z,51.43
2024-01-19T07:30:09.046Z,50.90
2024-01-19T07:32:51.679Z,50.63
2024-01-19T07:35:27.701Z,49.17
2024-01-19T07:37:55.785Z,52.50
2024-01-19T07:40:24.155Z,52.30
2024-01-19T07:42:52.977Z,45.80
2024-01-19T07:45:20.986Z,43.70
2024-01-19T07:47:49.065Z,55.17
2024-01-19T07:50:17.252Z,67.73
2024-01-19T07:52:47.038Z,63.67
2024-01-19T07:55:15.171Z,68.43
2024-01-19T07:57:43.193Z,65.37
2024-01-19T08:00:11.997Z,67.73
2024-01-19T08:02:41.507Z,63.93
2024-01-19T08:05:10.088Z,63.00
2024-01-19T08:07:39.057Z,61.73
2024-01-19T08:10:09.584Z,68.97
2024-01-19T08:12:37.584Z,55.37
2024-01-19T08:15:06.699Z,50.17
2024-01-19T08:17:34.909Z,53.53
2024-01-19T08:20:02.925Z,54.17
2024-01-19T08:22:31.055Z,56.77
2024-01-19T08:24:59.776Z,53.47
2024-01-19T08:27:29.140Z,49.03
2024-01-19T08:29:57.170Z,43.07
2024-01-19T08:32:25.853Z,44.90
2024-01-19T08:34:54.046Z,30.50
2024-01-19T08:37:22.394Z,48.63
2024-01-19T08:39:50.349Z,46.17
2024-01-19T08:42:18.354Z,27.17
2024-01-19T08:44:47.772Z,32.50
2024-01-19T08:47:16.280Z,28.40
2024-01-19T08:49:44.398Z,41.90
2024-01-19T08:52:12.461Z,36.60
2024-01-19T08:54:40.743Z,35.73
2024-01-19T08:57:08.941Z,37.70
2024-01-19T08:59:36.981Z,33.00
2024-01-19T09:02:06.368Z,29.20
2024-01-19T09:04:35.784Z,27.73
2024-01-19T09:07:03.906Z,25.33
2024-01-19T09:09:32.064Z,24.83
2024-01-19T09:12:00.213Z,23.33
2024-01-19T09:14:28.720Z,30.97
2024-01-19T09:16:56.759Z,20.77
2024-01-19T09:19:26.190Z,21.00
2024-01-19T09:21:54.151Z,21.07
2024-01-19T09:24:22.278Z,17.90
2024-01-19T09:26:50.241Z,20.23
2024-01-19T09:29:18.170Z,30.27
2024-01-19T09:31:47.801Z,27.67
2024-01-19T09:34:16.652Z,23.90
2024-01-19T09:36:46.162Z,23.80
2024-01-19T09:39:14.132Z,40.83
2024-01-19T09:41:48.220Z,69.90
2024-01-19T09:44:19.616Z,39.13
2024-01-19T09:47:12.919Z,50.63
2024-01-19T09:49:47.934Z,28.57
2024-01-19T09:52:35.912Z,22.33
2024-01-19T09:55:03.981Z,25.50
2024-01-19T09:57:34.485Z,26.50
2024-01-19T10:00:02.822Z,47.77
2024-01-19T10:02:33.518Z,45.67
2024-01-19T10:05:01.662Z,79.60
2024-01-19T10:07:32.853Z,64.20
2024-01-19T10:10:00.868Z,53.87
2024-01-19T10:12:29.961Z,62.57
2024-01-19T10:14:57.965Z,55.17
2024-01-19T10:17:26.519Z,48.27
2024-01-19T10:19:54.759Z,45.67
2024-01-19T10:22:26.993Z,44.53
2024-01-19T10:25:03.789Z,53.57
2024-01-19T10:27:42.468Z,46.80
2024-01-19T10:30:12.780Z,47.33
2024-01-19T10:32:41.816Z,42.10
2024-01-19T10:35:11.513Z,48.93
2024-01-19T10:37:39.710Z,38.70
2024-01-19T10:40:20.005Z,47.20
2024-01-19T10:42:49.590Z,42.97
2024-01-19T10:45:19.883Z,46.33
2024-01-19T10:47:48.382Z,42.50
2024-01-19T10:50:17.432Z,39.23
2024-01-19T10:52:46.439Z,48.03
2024-01-19T10:55:23.392Z,46.17
2024-01-19T10:57:57.119Z,40.70
2024-01-19T11:00:27.232Z,40.83
2024-01-19T11:02:57.275Z,35.17
2024-01-19T11:05:26.456Z,33.13
2024-01-19T11:07:55.653Z,34.77
2024-01-19T11:10:26.521Z,34.63
2024-01-19T11:12:56.942Z,35.03
2024-01-19T11:15:30.570Z,43.53
2024-01-19T11:18:01.359Z,34.97
2024-01-19T11:20:32.735Z,39.23
2024-01-19T11:23:02.235Z,35.47
2024-01-19T11:25:46.163Z,33.80
2024-01-19T11:28:21.162Z,36.77
2024-01-19T11:31:12.121Z,41.53
2024-01-19T11:33:40.224Z,31.50
2024-01-19T11:36:09.039Z,28.27
2024-01-19T11:38:45.826Z,31.70
2024-01-19T11:41:46.191Z,26.57
2024-01-19T11:44:45.413Z,24.27
2024-01-19T11:47:45.095Z,22.80
2024-01-19T11:50:14.799Z,18.47
2024-01-19T11:52:47.054Z,18.60
2024-01-19T11:55:36.442Z,19.77
2024-01-19T11:58:44.084Z,33.10
2024-01-19T12:01:14.765Z,24.37
2024-01-19T12:03:43.682Z,21.40
2024-01-19T12:06:12.506Z,21.57
2024-01-19T12:08:42.307Z,17.40
2024-01-19T12:11:12.014Z,17.03
2024-01-19T12:13:48.500Z,23.77
2024-01-19T12:16:24.163Z,24.57
2024-01-19T12:18:56.925Z,28.30
2024-01-19T12:21:25.725Z,27.83
2024-01-19T12:24:00.072Z,31.27
2024-01-19T12:26:28.431Z,19.33
2024-01-19T12:28:57.849Z,19.87
2024-01-19T12:31:31.666Z,28.67
2024-01-19T12:34:12.524Z,18.40
2024-01-19T12:36:40.911Z,15.50
2024-01-19T12:39:12.673Z,17.97
2024-01-19T12:41:41.576Z,12.97
2024-01-19T12:44:09.640Z,13.43
2024-01-19T12:46:40.115Z,19.83
2024-01-19T12:49:08.199Z,22.20
2024-01-19T12:51:36.195Z,17.60
2024-01-19T12:54:04.227Z,12.10
2024-01-19T12:56:33.984Z,12.13
2024-01-19T12:59:09.076Z,12.40
2024-01-19T13:01:41.272Z,14.13
2024-01-19T13:04:09.427Z,12.97
2024-01-19T13:06:41.791Z,16.00
2024-01-19T13:09:10.499Z,13.23
2024-01-19T13:11:38.546Z,16.83
2024-01-19T13:14:07.260Z,19.70
2024-01-19T13:16:53.827Z,18.40
2024-01-19T13:19:23.848Z,13.03
2024-01-19T13:21:52.664Z,11.33
2024-01-19T13:24:20.739Z,14.47
2024-01-19T13:26:59.990Z,16.73
2024-01-19T13:29:28.123Z,19.23
2024-01-19T13:31:56.424Z,39.90
2024-01-19T13:34:29.005Z,48.97
2024-01-19T13:36:57.471Z,26.20
2024-01-19T13:39:25.463Z,16.60
2024-01-19T13:41:53.525Z,15.73
2024-01-19T13:44:21.587Z,14.80
2024-01-19T13:46:49.565Z,14.13
2024-01-19T13:49:17.654Z,15.60
2024-01-19T13:51:47.044Z,18.80
2024-01-19T13:54:15.025Z,17.97
2024-01-19T13:56:43.701Z,17.50
2024-01-19T13:59:11.703Z,19.33
2024-01-19T14:01:39.846Z,17.60
2024-01-19T14:04:07.858Z,16.13
2024-01-19T14:06:36.012Z,15.37
2024-01-19T14:09:06.085Z,18.03
2024-01-19T14:11:34.305Z,18.60
2024-01-19T14:14:03.252Z,18.37
2024-01-19T14:16:31.301Z,17.10
2024-01-19T14:18:59.321Z,20.77
2024-01-19T14:21:27.368Z,14.67
2024-01-19T14:23:55.260Z,22.63
2024-01-19T14:26:24.945Z,22.23
2024-01-19T14:28:53.246Z,28.23
2024-01-19T14:31:21.267Z,21.03
2024-01-19T14:33:49.379Z,33.37
2024-01-19T14:36:17.927Z,47.87
2024-01-19T14:38:45.819Z,29.53
2024-01-19T14:41:13.811Z,78.73
2024-01-19T14:43:45.502Z,46.37
2024-01-19T14:46:15.945Z,105.80
2024-01-19T14:48:44.391Z,33.03
2024-01-19T14:51:13.262Z,52.23
2024-01-19T14:53:43.243Z,57.97
2024-01-19T14:56:11.573Z,32.03
2024-01-19T14:58:39.537Z,19.30
2024-01-19T15:01:08.908Z,20.37
2024-01-19T15:03:36.878Z,45.63
2024-01-19T15:06:05.266Z,24.87
2024-01-19T15:08:33.305Z,23.00
2024-01-19T15:11:01.316Z,26.03
2024-01-19T15:13:29.375Z,26.37
2024-01-19T15:15:57.337Z,32.80
2024-01-19T15:18:28.315Z,40.07
2024-01-19T15:20:58.027Z,26.20
2024-01-19T15:23:25.947Z,30.80
2024-01-19T15:25:53.983Z,34.87
2024-01-19T15:28:21.953Z,61.93
2024-01-19T15:30:49.882Z,76.27
2024-01-19T15:33:18.341Z,30.63
2024-01-19T15:35:47.985Z,27.30
2024-01-19T15:38:16.005Z,22.93
2024-01-19T15:40:43.984Z,36.97
2024-01-19T15:43:11.954Z,32.57
2024-01-19T15:45:39.870Z,28.97
2024-01-19T15:48:08.499Z,32.20
2024-01-19T15:50:36.487Z,37.63
2024-01-19T15:53:09.096Z,41.50
2024-01-19T15:55:37.417Z,37.57
2024-01-19T15:58:05.568Z,38.40
2024-01-19T16:00:33.578Z,33.27
2024-01-19T16:03:01.617Z,32.87
2024-01-19T16:05:29.717Z,33.43
2024-01-19T16:07:57.736Z,33.17
2024-01-19T16:10:27.118Z,39.20
2024-01-19T16:12:55.044Z,36.63
2024-01-19T16:15:22.940Z,41.53
2024-01-19T16:17:51.128Z,50.37
2024-01-19T16:20:19.291Z,46.17
2024-01-19T16:22:47.244Z,30.13
2024-01-19T16:25:15.182Z,27.73
2024-01-19T16:27:44.606Z,33.83
2024-01-19T16:30:13.945Z,25.37
2024-01-19T16:32:45.877Z,20.67
2024-01-19T16:35:19.055Z,31.00
2024-01-19T16:37:52.254Z,23.13
2024-01-19T16:40:20.160Z,25.33
2024-01-19T16:42:49.420Z,19.87
2024-01-19T16:45:18.108Z,23.47
2024-01-19T16:47:46.465Z,24.60
2024-01-19T16:50:14.793Z,26.77
2024-01-19T16:52:42.746Z,31.70
2024-01-19T16:55:11.061Z,25.10
2024-01-19T16:57:38.943Z,21.83
2024-01-19T17:00:09.701Z,26.23
2024-01-19T17:02:37.654Z,19.50
2024-01-19T17:05:05.992Z,18.87
2024-01-19T17:07:36.500Z,21.90
2024-01-19T17:10:06.636Z,20.67
2024-01-19T17:12:34.529Z,21.33
2024-01-19T17:15:02.772Z,19.93
2024-01-19T17:17:32.105Z,31.87
2024-01-19T17:20:00.086Z,39.37
2024-01-19T17:22:29.964Z,25.33
2024-01-19T17:24:58.037Z,28.60
2024-01-19T17:27:26.086Z,29.50
2024-01-19T17:29:54.856Z,26.50
2024-01-19T17:32:22.917Z,33.07
2024-01-19T17:34:52.681Z,37.20
2024-01-19T17:37:20.846Z,34.03
2024-01-19T17:39:48.923Z,32.50
2024-01-19T17:42:17.186Z,29.93
2024-01-19T17:44:45.455Z,29.97
2024-01-19T17:47:13.437Z,32.17
2024-01-19T17:49:41.537Z,31.93
2024-01-19T17:52:11.854Z,30.00
2024-01-19T17:54:39.892Z,34.30
2024-01-19T17:57:07.936Z,41.87
2024-01-19T17:59:35.843Z,31.10
2024-01-19T18:02:03.796Z,32.10
2024-01-19T18:04:31.800Z,29.87
2024-01-19T18:06:59.853Z,30.23
2024-01-19T18:09:29.396Z,37.93
2024-01-19T18:11:57.549Z,35.47
2024-01-19T18:14:27.626Z,28.10
2024-01-19T18:16:55.663Z,30.97
2024-01-19T18:19:23.994Z,34.20
2024-01-19T18:21:54.093Z,43.90
2024-01-19T18:24:22.129Z,42.00
2024-01-19T18:26:52.967Z,40.23
2024-01-19T18:29:23.401Z,49.03
2024-01-19T18:31:51.461Z,42.20
2024-01-19T18:34:19.791Z,43.90
2024-01-19T18:36:47.865Z,41.70
2024-01-19T18:39:16.102Z,43.70
2024-01-19T18:41:44.006Z,38.43
2024-01-19T18:44:13.491Z,39.47
2024-01-19T18:46:46.384Z,40.47
2024-01-19T18:49:14.628Z,40.23
2024-01-19T18:51:42.739Z,40.83
2024-01-19T18:54:10.744Z,38.37
2024-01-19T18:56:39.727Z,37.03
2024-01-19T18:59:07.926Z,37.47
2024-01-19T19:01:38.100Z,31.77
2024-01-19T19:04:07.524Z,34.47
2024-01-19T19:06:36.751Z,41.57
2024-01-19T19:09:04.953Z,44.23
2024-01-19T19:11:33.696Z,39.30
2024-01-19T19:14:02.403Z,41.10
2024-01-19T19:16:37.134Z,44.17
2024-01-19T19:19:15.248Z,29.30
2024-01-19T19:21:43.294Z,28.70
2024-01-19T19:24:11.200Z,31.83
2024-01-19T19:26:39.353Z,30.87
2024-01-19T19:29:07.788Z,35.50
2024-01-19T19:31:35.887Z,25.97
2024-01-19T19:34:04.513Z,26.97
2024-01-19T19:36:34.319Z,26.30
2024-01-19T19:39:05.147Z,24.43
2024-01-19T19:41:33.461Z,26.27
2024-01-19T19:44:01.543Z,24.83
2024-01-19T19:46:29.490Z,24.20
2024-01-19T19:48:58.298Z,30.17
2024-01-19T19:51:28.226Z,35.47
2024-01-19T19:53:57.615Z,32.97
2024-01-19T19:56:25.588Z,37.20
2024-01-19T19:58:53.649Z,41.60
2024-01-19T20:01:22.584Z,37.00
2024-01-19T20:03:50.564Z,36.70
2024-01-19T20:06:24.058Z,40.47
2024-01-19T20:08:52.846Z,33.60
2024-01-19T20:11:23.123Z,37.93
2024-01-19T20:13:51.633Z,34.70
2024-01-19T20:16:19.804Z,31.93
2024-01-19T20:18:48.617Z,34.77
2024-01-19T20:21:16.785Z,39.23
2024-01-19T20:23:44.987Z,33.33
2024-01-19T20:26:16.474Z,34.30
2024-01-19T20:28:46.392Z,35.83
2024-01-19T20:31:15.258Z,33.57
2024-01-19T20:33:43.989Z,39.90
2024-01-19T20:36:12.538Z,35.87
2024-01-19T20:38:40.946Z,34.10
2024-01-19T20:41:11.525Z,35.83
2024-01-19T20:43:40.082Z,36.30
2024-01-19T20:46:10.069Z,45.53
2024-01-19T20:48:38.536Z,33.53
2024-01-19T20:51:08.239Z,31.20
2024-01-19T20:53:36.694Z,37.53
2024-01-19T20:56:05.482Z,32.20
2024-01-19T20:58:34.164Z,33.57
2024-01-19T21:01:02.911Z,39.90
2024-01-19T21:03:32.798Z,41.17
2024-01-19T21:06:00.966Z,61.67
2024-01-19T21:08:29.251Z,48.97
2024-01-19T21:10:59.904Z,35.03
2024-01-19T21:13:31.053Z,40.37
2024-01-19T21:15:59.845Z,34.30
2024-01-19T21:18:28.008Z,34.80
2024-01-19T21:20:58.781Z,30.70
2024-01-19T21:23:27.506Z,36.50
2024-01-19T21:25:55.530Z,35.20
2024-01-19T21:28:23.520Z,33.83
2024-01-19T21:30:51.419Z,31.77
2024-01-19T21:33:19.348Z,34.17
2024-01-19T21:35:47.602Z,35.13
2024-01-19T21:38:18.281Z,34.03
2024-01-19T21:40:46.983Z,37.33
2024-01-19T21:43:15.945Z,31.30
2024-01-19T21:45:44.270Z,39.10
2024-01-19T21:48:12.790Z,36.87
2024-01-19T21:50:41.243Z,41.93
2024-01-19T21:53:09.762Z,35.70
2024-01-19T21:55:39.251Z,40.90
2024-01-19T21:58:07.313Z,38.43
2024-01-19T22:00:35.268Z,44.00
2024-01-19T22:03:03.524Z,51.33
2024-01-19T22:05:31.626Z,60.90
2024-01-19T22:07:59.799Z,66.83
2024-01-19T22:10:27.757Z,61.77
2024-01-19T22:12:57.037Z,71.10
2024-01-19T22:15:25.005Z,67.67
2024-01-19T22:17:52.940Z,60.33
2024-01-19T22:20:20.946Z,60.90
2024-01-19T22:22:48.875Z,70.30
2024-01-19T22:25:16.991Z,67.70
2024-01-19T22:27:45.371Z,69.57
2024-01-19T22:30:15.547Z,64.37
2024-01-19T22:32:44.011Z,54.77
2024-01-19T22:35:12.202Z,54.73
2024-01-19T22:37:40.224Z,49.27
2024-01-19T22:40:10.221Z,43.73
2024-01-19T22:42:38.516Z,49.37
2024-01-19T22:45:07.334Z,43.30
2024-01-19T22:47:36.649Z,41.47
2024-01-19T22:50:05.745Z,42.70
2024-01-19T22:52:33.989Z,41.43
2024-01-19T22:55:02.016Z,42.13
2024-01-19T22:57:30.204Z,45.37
2024-01-19T22:59:58.102Z,47.30
2024-01-19T23:02:26.955Z,42.33
2024-01-19T23:04:56.330Z,42.67
2024-01-19T23:07:24.727Z,42.87
2024-01-19T23:09:52.665Z,43.97
2024-01-19T23:12:20.531Z,41.00
2024-01-19T23:14:48.453Z,38.57
2024-01-19T23:17:15.542Z,40.60
2024-01-19T23:19:43.678Z,38.10
2024-01-19T23:22:13.032Z,41.03
2024-01-19T23:24:40.965Z,30.67
2024-01-19T23:27:09.183Z,32.03
2024-01-19T23:29:37.190Z,31.10
2024-01-19T23:32:08.229Z,26.53
2024-01-19T23:34:36.855Z,25.50
2024-01-19T23:37:05.230Z,24.57
2024-01-19T23:39:35.532Z,26.03
2024-01-19T23:42:03.759Z,22.70
2024-01-19T23:44:31.754Z,22.53
2024-01-19T23:46:59.717Z,32.60
2024-01-19T23:49:29.329Z,25.27
2024-01-19T23:51:59.557Z,28.17
2024-01-19T23:54:27.457Z,27.57
2024-01-19T23:56:56.694Z,20.80
2024-01-19T23:59:24.653Z,17.73
